createdAt,value
2022-07-26T00:00:44.338Z,55.30
2022-07-26T00:03:11.233Z,55.20
2022-07-26T00:05:38.961Z,55.20
2022-07-26T00:08:13.393Z,55.30
2022-07-26T00:10:50.419Z,55.30
2022-07-26T00:13:22.275Z,55.60
2022-07-26T00:15:50.261Z,55.40
2022-07-26T00:18:17.787Z,55.50
2022-07-26T00:20:45.218Z,55.70
2022-07-26T00:23:12.054Z,55.70
2022-07-26T00:25:38.859Z,55.80
2022-07-26T00:28:06.101Z,55.90
2022-07-26T00:30:33.642Z,56.10
2022-07-26T00:33:00.534Z,56.20
2022-07-26T00:35:27.456Z,56.00
2022-07-26T00:37:54.271Z,56.10
2022-07-26T00:40:21.275Z,56.30
2022-07-26T00:42:48.082Z,56.30
2022-07-26T00:45:15.766Z,56.30
2022-07-26T00:47:43.049Z,56.30
2022-07-26T00:50:13.383Z,56.40
2022-07-26T00:52:43.450Z,56.40
2022-07-26T00:55:10.764Z,56.40
2022-07-26T00:57:38.790Z,56.40
2022-07-26T01:00:09.986Z,56.50
2022-07-26T01:02:36.944Z,56.50
2022-07-26T01:05:04.615Z,56.50
2022-07-26T01:07:34.835Z,56.40
2022-07-26T01:10:04.345Z,56.50
2022-07-26T01:12:31.221Z,56.50
2022-07-26T01:14:58.060Z,56.40
2022-07-26T01:17:24.836Z,56.60
2022-07-26T01:19:51.791Z,56.70
2022-07-26T01:22:18.593Z,56.60
2022-07-26T01:24:45.566Z,56.90
2022-07-26T01:27:12.451Z,57.00
2022-07-26T01:29:39.517Z,57.00
2022-07-26T01:32:09.370Z,57.00
2022-07-26T01:34:39.048Z,56.90
2022-07-26T01:37:06.071Z,57.00
2022-07-26T01:39:32.949Z,57.10
2022-07-26T01:41:59.799Z,57.00
2022-07-26T01:44:26.704Z,57.10
2022-07-26T01:46:53.584Z,57.00
2022-07-26T01:49:20.428Z,57.10
2022-07-26T01:51:47.271Z,57.10
2022-07-26T01:54:14.166Z,57.00
2022-07-26T01:56:43.261Z,57.00
2022-07-26T01:59:10.143Z,57.00
2022-07-26T02:01:38.191Z,57.00
2022-07-26T02:04:08.330Z,57.00
2022-07-26T02:06:35.538Z,57.00
2022-07-26T02:09:04.277Z,57.10
2022-07-26T02:11:34.298Z,57.30
2022-07-26T02:14:02.337Z,57.30
2022-07-26T02:16:29.241Z,57.30
2022-07-26T02:18:56.116Z,57.40
2022-07-26T02:21:23.046Z,57.50
2022-07-26T02:23:49.912Z,57.40
2022-07-26T02:26:16.837Z,57.60
2022-07-26T02:28:43.653Z,57.60
2022-07-26T02:31:10.555Z,57.50
2022-07-26T02:33:38.752Z,57.30
2022-07-26T02:36:05.745Z,57.10
2022-07-26T02:38:32.690Z,56.90
2022-07-26T02:40:59.507Z,56.80
2022-07-26T02:43:26.887Z,56.80
2022-07-26T02:46:01.592Z,56.90
2022-07-26T02:48:30.652Z,56.70
2022-07-26T02:50:57.616Z,56.70
2022-07-26T02:53:24.505Z,56.70
2022-07-26T02:55:51.624Z,56.70
2022-07-26T02:58:21.304Z,56.70
2022-07-26T03:00:48.266Z,56.70
2022-07-26T03:03:15.248Z,56.40
2022-07-26T03:05:42.390Z,56.00
2022-07-26T03:08:09.500Z,56.00
2022-07-26T03:10:36.373Z,55.80
2022-07-26T03:13:03.228Z,55.90
2022-07-26T03:15:30.153Z,56.00
2022-07-26T03:17:57.098Z,56.00
2022-07-26T03:20:24.052Z,56.00
2022-07-26T03:22:51.029Z,56.10
2022-07-26T03:25:17.885Z,55.80
2022-07-26T03:27:44.637Z,56.20
2022-07-26T03:30:12.415Z,55.80
2022-07-26T03:32:39.610Z,56.00
2022-07-26T03:35:07.569Z,56.20
2022-07-26T03:37:44.749Z,56.30
2022-07-26T03:40:15.789Z,56.50
2022-07-26T03:42:46.076Z,56.10
2022-07-26T03:45:14.874Z,56.30
2022-07-26T03:47:42.737Z,56.40
2022-07-26T03:50:11.269Z,56.40
2022-07-26T03:52:38.365Z,56.40
2022-07-26T03:55:25.872Z,56.50
2022-07-26T03:57:52.954Z,56.50
2022-07-26T04:00:20.366Z,56.60
2022-07-26T04:02:50.263Z,56.80
2022-07-26T04:05:17.543Z,56.90
2022-07-26T04:07:53.724Z,56.90
2022-07-26T04:10:24.849Z,57.10
2022-07-26T04:12:51.795Z,57.20
2022-07-26T04:15:19.949Z,57.30
2022-07-26T04:17:48.385Z,57.30
2022-07-26T04:20:15.929Z,57.20
2022-07-26T04:22:42.874Z,57.20
2022-07-26T04:25:10.451Z,57.40
2022-07-26T04:27:38.605Z,57.40
2022-07-26T04:30:12.404Z,57.30
2022-07-26T04:32:46.928Z,57.50
2022-07-26T04:35:16.958Z,57.30
2022-07-26T04:37:45.138Z,57.30
2022-07-26T04:40:16.860Z,57.30
2022-07-26T04:42:49.184Z,57.20
2022-07-26T04:45:16.713Z,57.00
2022-07-26T04:47:45.204Z,57.00
2022-07-26T04:50:21.037Z,57.00
2022-07-26T04:52:49.039Z,56.80
2022-07-26T04:55:20.251Z,57.00
2022-07-26T04:57:47.889Z,57.00
2022-07-26T05:00:24.598Z,57.10
2022-07-26T05:02:59.961Z,57.30
2022-07-26T05:05:29.319Z,57.30
2022-07-26T05:08:00.789Z,57.30
2022-07-26T05:10:36.719Z,57.20
2022-07-26T05:13:05.744Z,57.20
2022-07-26T05:15:35.160Z,57.20
2022-07-26T05:18:07.068Z,57.40
2022-07-26T05:20:35.552Z,57.60
2022-07-26T05:23:02.623Z,57.30
2022-07-26T05:25:29.521Z,57.40
2022-07-26T05:27:56.396Z,57.50
2022-07-26T05:30:23.354Z,57.80
2022-07-26T05:32:50.126Z,57.90
2022-07-26T05:35:17.874Z,58.00
2022-07-26T05:37:44.823Z,57.90
2022-07-26T05:40:12.430Z,57.70
2022-07-26T05:42:39.243Z,57.70
2022-07-26T05:45:06.899Z,58.50
2022-07-26T05:47:34.305Z,57.60
2022-07-26T05:50:01.205Z,57.50
2022-07-26T05:52:28.075Z,57.60
2022-07-26T05:54:54.818Z,57.70
2022-07-26T05:57:21.576Z,57.90
2022-07-26T05:59:48.333Z,58.10
2022-07-26T06:02:15.262Z,57.90
2022-07-26T06:04:42.155Z,58.10
2022-07-26T06:07:08.936Z,58.10
2022-07-26T06:09:35.910Z,58.40
2022-07-26T06:12:02.661Z,58.50
2022-07-26T06:14:29.665Z,58.40
2022-07-26T06:16:56.864Z,59.30
2022-07-26T06:19:23.941Z,60.00
2022-07-26T06:21:50.723Z,60.20
2022-07-26T06:24:17.882Z,60.70
2022-07-26T06:26:54.757Z,61.00
2022-07-26T06:29:24.016Z,61.30
2022-07-26T06:31:59.072Z,61.30
2022-07-26T06:34:25.872Z,61.40
2022-07-26T06:36:52.775Z,62.40
2022-07-26T06:39:19.664Z,61.60
2022-07-26T06:41:46.708Z,61.40
2022-07-26T06:44:16.782Z,61.50
2022-07-26T06:46:43.682Z,61.50
2022-07-26T06:49:21.921Z,61.60
2022-07-26T06:51:49.440Z,61.10
2022-07-26T06:54:16.340Z,61.30
2022-07-26T06:56:50.912Z,61.50
2022-07-26T06:59:17.781Z,61.70
2022-07-26T07:01:55.402Z,61.90
2022-07-26T07:04:31.329Z,62.20
2022-07-26T07:07:05.855Z,62.50
2022-07-26T07:09:33.932Z,62.50
2022-07-26T07:12:09.981Z,62.50
2022-07-26T07:14:39.439Z,62.70
2022-07-26T07:17:12.115Z,63.00
2022-07-26T07:19:43.241Z,63.00
2022-07-26T07:22:16.258Z,63.00
2022-07-26T07:24:44.586Z,63.30
2022-07-26T07:27:13.643Z,63.30
2022-07-26T07:29:51.869Z,63.50
2022-07-26T07:32:19.962Z,63.60
2022-07-26T07:34:49.100Z,62.60
2022-07-26T07:37:17.539Z,62.70
2022-07-26T07:39:50.198Z,62.60
2022-07-26T07:42:18.943Z,62.30
2022-07-26T07:44:46.044Z,61.80
2022-07-26T07:47:17.135Z,62.10
2022-07-26T07:49:44.297Z,61.50
2022-07-26T07:52:11.217Z,61.70
2022-07-26T07:54:38.374Z,61.60
2022-07-26T07:57:05.187Z,61.60
2022-07-26T07:59:32.142Z,61.70
2022-07-26T08:02:02.076Z,61.10
2022-07-26T08:04:29.500Z,60.40
2022-07-26T08:07:06.531Z,60.10
2022-07-26T08:09:38.032Z,60.40
2022-07-26T08:12:19.547Z,60.00
2022-07-26T08:14:52.357Z,60.10
2022-07-26T08:17:24.652Z,60.40
2022-07-26T08:20:00.043Z,59.40
2022-07-26T08:22:28.395Z,59.00
2022-07-26T08:24:58.233Z,59.70
2022-07-26T08:27:25.104Z,59.20
2022-07-26T08:29:51.874Z,58.80
2022-07-26T08:32:21.612Z,58.50
2022-07-26T08:34:48.533Z,57.80
2022-07-26T08:37:17.498Z,58.50
2022-07-26T08:39:46.662Z,58.80
2022-07-26T08:42:15.850Z,58.60
2022-07-26T08:44:47.352Z,58.10
2022-07-26T08:47:16.023Z,58.20
2022-07-26T08:49:43.705Z,58.50
2022-07-26T08:52:11.807Z,58.30
2022-07-26T08:54:47.832Z,56.20
2022-07-26T08:57:15.394Z,55.30
2022-07-26T08:59:42.363Z,55.30
2022-07-26T09:02:11.966Z,55.60
2022-07-26T09:04:44.223Z,56.70
2022-07-26T09:07:15.602Z,57.60
2022-07-26T09:10:09.444Z,57.30
2022-07-26T09:12:36.985Z,57.50
2022-07-26T09:15:06.001Z,57.80
2022-07-26T09:17:44.726Z,56.90
2022-07-26T09:20:15.406Z,57.20
2022-07-26T09:23:03.225Z,54.80
2022-07-26T09:25:36.528Z,54.30
2022-07-26T09:28:04.747Z,53.10
2022-07-26T09:30:32.666Z,51.80
2022-07-26T09:33:05.546Z,53.00
2022-07-26T09:35:52.352Z,53.70
2022-07-26T09:38:19.534Z,54.10
2022-07-26T09:40:50.819Z,54.40
2022-07-26T09:43:23.782Z,54.70
2022-07-26T09:46:05.403Z,55.20
2022-07-26T09:48:59.477Z,56.20
2022-07-26T09:51:41.927Z,55.30
2022-07-26T09:54:11.009Z,54.30
2022-07-26T09:56:57.432Z,53.20
2022-07-26T09:59:26.192Z,53.00
2022-07-26T10:01:54.899Z,53.10
2022-07-26T10:04:23.134Z,53.80
2022-07-26T10:06:50.465Z,53.70
2022-07-26T10:09:22.954Z,52.80
2022-07-26T10:11:57.921Z,53.10
2022-07-26T10:14:42.379Z,53.90
2022-07-26T10:17:31.324Z,53.60
2022-07-26T10:20:03.637Z,53.80
2022-07-26T10:22:34.075Z,52.90
2022-07-26T10:25:19.686Z,53.60
2022-07-26T10:27:55.321Z,53.50
2022-07-26T10:30:33.599Z,53.70
2022-07-26T10:33:11.924Z,52.60
2022-07-26T10:35:42.103Z,52.60
2022-07-26T10:38:12.942Z,51.60
2022-07-26T10:40:59.486Z,51.80
2022-07-26T10:43:43.150Z,51.10
2022-07-26T10:46:16.178Z,49.80
2022-07-26T10:49:04.195Z,47.80
2022-07-26T10:51:39.215Z,49.10
2022-07-26T10:54:11.933Z,47.80
2022-07-26T10:56:40.042Z,46.50
2022-07-26T10:59:07.348Z,45.30
2022-07-26T11:01:36.207Z,45.70
2022-07-26T11:04:03.345Z,45.60
2022-07-26T11:06:30.456Z,46.10
2022-07-26T11:08:57.325Z,48.00
2022-07-26T11:11:33.041Z,48.70
2022-07-26T11:14:11.968Z,49.10
2022-07-26T11:16:50.523Z,48.40
2022-07-26T11:19:25.721Z,48.20
2022-07-26T11:21:58.912Z,48.90
2022-07-26T11:24:26.808Z,45.50
2022-07-26T11:26:54.157Z,45.90
2022-07-26T11:29:40.677Z,46.70
2022-07-26T11:32:22.109Z,45.10
2022-07-26T11:35:00.068Z,46.10
2022-07-26T11:37:27.356Z,46.10
2022-07-26T11:39:54.306Z,47.70
2022-07-26T11:42:22.146Z,47.80
2022-07-26T11:44:50.391Z,49.10
2022-07-26T11:47:20.160Z,49.40
2022-07-26T11:49:51.887Z,47.40
2022-07-26T11:52:32.196Z,47.90
2022-07-26T11:54:59.383Z,47.60
2022-07-26T11:57:31.238Z,46.50
2022-07-26T11:59:59.036Z,44.90
2022-07-26T12:02:26.516Z,45.70
2022-07-26T12:05:20.730Z,45.40
2022-07-26T12:08:04.322Z,45.90
2022-07-26T12:10:31.377Z,46.60
2022-07-26T12:13:11.710Z,48.60
2022-07-26T12:15:53.529Z,48.40
2022-07-26T12:18:31.254Z,48.50
2022-07-26T12:21:06.640Z,47.00
2022-07-26T12:23:49.287Z,46.70
2022-07-26T12:26:24.607Z,45.50
2022-07-26T12:28:51.671Z,44.90
2022-07-26T12:31:30.570Z,44.00
2022-07-26T12:33:58.425Z,41.40
2022-07-26T12:36:27.471Z,40.50
2022-07-26T12:38:59.426Z,40.90
2022-07-26T12:41:35.971Z,40.80
2022-07-26T12:44:03.996Z,41.40
2022-07-26T12:46:35.250Z,43.70
2022-07-26T12:49:03.046Z,45.00
2022-07-26T12:51:30.032Z,43.90
2022-07-26T12:53:56.954Z,42.00
2022-07-26T12:56:23.729Z,43.20
2022-07-26T12:58:50.639Z,42.70
2022-07-26T13:01:17.605Z,42.90
2022-07-26T13:03:44.548Z,41.60
2022-07-26T13:06:11.482Z,40.90
2022-07-26T13:08:38.750Z,39.00
2022-07-26T13:11:05.622Z,37.80
2022-07-26T13:13:32.470Z,37.30
2022-07-26T13:15:59.403Z,36.80
2022-07-26T13:18:26.188Z,37.70
2022-07-26T13:20:53.020Z,38.90
2022-07-26T13:23:22.065Z,39.40
2022-07-26T13:25:52.294Z,38.90
2022-07-26T13:28:19.796Z,39.20
2022-07-26T13:30:46.656Z,39.00
2022-07-26T13:33:13.433Z,39.00
2022-07-26T13:35:42.388Z,39.10
2022-07-26T13:38:09.988Z,39.50
2022-07-26T13:40:36.882Z,39.10
2022-07-26T13:43:04.759Z,39.90
2022-07-26T13:45:31.632Z,39.90
2022-07-26T13:47:59.651Z,40.00
2022-07-26T13:50:30.045Z,40.40
2022-07-26T13:52:57.145Z,41.20
2022-07-26T13:55:24.649Z,41.80
2022-07-26T13:57:55.823Z,41.20
2022-07-26T14:00:25.636Z,40.60
2022-07-26T14:02:52.641Z,41.50
2022-07-26T14:05:20.529Z,39.70
2022-07-26T14:07:47.472Z,39.90
2022-07-26T14:10:14.330Z,39.20
2022-07-26T14:12:41.236Z,39.90
2022-07-26T14:15:16.801Z,39.40
2022-07-26T14:17:48.298Z,40.00
2022-07-26T14:20:16.882Z,40.00
2022-07-26T14:22:44.393Z,39.70
2022-07-26T14:25:11.347Z,39.80
2022-07-26T14:27:38.218Z,38.40
2022-07-26T14:30:05.655Z,38.90
2022-07-26T14:32:32.491Z,39.60
2022-07-26T14:34:59.281Z,37.90
2022-07-26T14:37:44.053Z,37.50
2022-07-26T14:40:16.724Z,38.90
2022-07-26T14:42:44.685Z,37.80
2022-07-26T14:45:12.268Z,37.10
2022-07-26T14:47:39.428Z,36.70
2022-07-26T14:50:08.219Z,35.20
2022-07-26T14:52:48.466Z,36.10
2022-07-26T14:55:20.357Z,37.80
2022-07-26T14:57:49.886Z,37.90
2022-07-26T15:00:18.067Z,38.00
2022-07-26T15:02:47.172Z,38.70
2022-07-26T15:05:15.559Z,39.00
2022-07-26T15:07:43.204Z,39.40
2022-07-26T15:10:12.880Z,36.60
2022-07-26T15:12:40.556Z,36.30
2022-07-26T15:15:08.838Z,36.60
2022-07-26T15:17:36.624Z,36.20
2022-07-26T15:20:05.163Z,36.70
2022-07-26T15:22:32.092Z,37.90
2022-07-26T15:24:58.877Z,37.00
2022-07-26T15:27:25.755Z,37.10
2022-07-26T15:29:52.573Z,38.60
2022-07-26T15:32:21.354Z,37.00
2022-07-26T15:34:48.523Z,37.90
2022-07-26T15:37:15.411Z,37.10
2022-07-26T15:39:42.238Z,38.00
2022-07-26T15:42:09.320Z,38.10
2022-07-26T15:44:38.654Z,37.40
2022-07-26T15:47:05.646Z,37.10
2022-07-26T15:49:33.426Z,38.00
2022-07-26T15:52:01.090Z,37.20
2022-07-26T15:54:27.936Z,36.30
2022-07-26T15:56:54.857Z,37.10
2022-07-26T15:59:21.649Z,37.20
2022-07-26T16:01:48.712Z,38.30
2022-07-26T16:04:15.807Z,38.70
2022-07-26T16:06:42.990Z,38.40
2022-07-26T16:09:19.030Z,40.10
2022-07-26T16:11:47.087Z,39.40
2022-07-26T16:14:14.683Z,39.80
2022-07-26T16:16:41.582Z,38.90
2022-07-26T16:19:08.743Z,39.10
2022-07-26T16:21:37.066Z,38.30
2022-07-26T16:24:07.042Z,38.10
2022-07-26T16:26:34.935Z,39.00
2022-07-26T16:29:02.280Z,39.10
2022-07-26T16:31:30.286Z,39.10
2022-07-26T16:33:57.311Z,38.60
2022-07-26T16:36:24.186Z,39.10
2022-07-26T16:38:50.998Z,38.70
2022-07-26T16:41:17.829Z,38.50
2022-07-26T16:43:46.113Z,39.40
2022-07-26T16:46:13.114Z,38.90
2022-07-26T16:48:39.990Z,38.80
2022-07-26T16:51:07.083Z,39.20
2022-07-26T16:53:33.977Z,39.10
2022-07-26T16:56:00.937Z,39.20
2022-07-26T16:58:30.896Z,39.60
2022-07-26T17:00:57.795Z,40.70
2022-07-26T17:03:24.737Z,40.10
2022-07-26T17:05:51.736Z,40.30
2022-07-26T17:08:18.878Z,39.80
2022-07-26T17:10:46.233Z,39.70
2022-07-26T17:13:13.083Z,39.40
2022-07-26T17:15:40.011Z,39.70
2022-07-26T17:18:06.957Z,39.40
2022-07-26T17:20:33.912Z,39.60
2022-07-26T17:23:00.908Z,39.40
2022-07-26T17:25:27.921Z,40.10
2022-07-26T17:27:54.802Z,40.50
2022-07-26T17:30:22.120Z,40.50
2022-07-26T17:32:49.125Z,39.70
2022-07-26T17:35:19.650Z,39.90
2022-07-26T17:37:46.714Z,40.60
2022-07-26T17:40:16.378Z,41.20
2022-07-26T17:42:43.853Z,41.10
2022-07-26T17:45:11.289Z,40.80
2022-07-26T17:47:41.005Z,40.60
2022-07-26T17:52:55.834Z,41.50
2022-07-26T17:55:22.900Z,42.40
2022-07-26T17:57:50.464Z,40.90
2022-07-26T18:00:19.598Z,41.00
2022-07-26T18:02:47.331Z,41.30
2022-07-26T18:05:14.855Z,41.80
2022-07-26T18:07:41.858Z,41.90
2022-07-26T18:10:10.110Z,42.10
2022-07-26T18:12:37.088Z,41.70
2022-07-26T18:15:04.479Z,41.70
2022-07-26T18:17:31.267Z,41.60
2022-07-26T18:19:58.055Z,42.50
2022-07-26T18:22:25.357Z,42.60
2022-07-26T18:24:52.189Z,43.00
2022-07-26T18:27:19.568Z,42.60
2022-07-26T18:29:46.579Z,42.40
2022-07-26T18:32:16.973Z,42.80
2022-07-26T18:34:46.079Z,42.70
2022-07-26T18:37:20.437Z,42.80
2022-07-26T18:39:51.562Z,43.40
2022-07-26T18:42:21.365Z,43.30
2022-07-26T18:44:48.215Z,43.10
2022-07-26T18:47:15.060Z,43.30
2022-07-26T18:49:41.838Z,42.00
2022-07-26T18:52:09.780Z,42.90
2022-07-26T18:54:37.494Z,41.80
2022-07-26T18:57:05.165Z,42.50
2022-07-26T18:59:32.898Z,42.30
2022-07-26T19:02:00.586Z,43.00
2022-07-26T19:04:28.343Z,42.80
2022-07-26T19:06:55.690Z,43.30
2022-07-26T19:09:22.569Z,42.40
2022-07-26T19:11:49.390Z,42.90
2022-07-26T19:14:16.204Z,43.20
2022-07-26T19:16:43.039Z,43.10
2022-07-26T19:19:10.301Z,43.00
2022-07-26T19:21:38.022Z,43.00
2022-07-26T19:24:05.272Z,43.20
2022-07-26T19:26:32.111Z,43.60
2022-07-26T19:28:58.959Z,43.30
2022-07-26T19:31:26.682Z,43.70
2022-07-26T19:33:53.550Z,44.10
2022-07-26T19:36:26.167Z,44.20
2022-07-26T19:38:55.622Z,44.20
2022-07-26T19:41:22.699Z,44.20
2022-07-26T19:43:49.462Z,44.60
2022-07-26T19:46:16.350Z,44.20
2022-07-26T19:48:43.219Z,44.70
2022-07-26T19:51:10.050Z,44.60
2022-07-26T19:53:36.934Z,44.40
2022-07-26T19:56:04.387Z,44.50
2022-07-26T19:58:31.262Z,44.50
2022-07-26T20:00:58.399Z,44.70
2022-07-26T20:03:25.399Z,45.00
2022-07-26T20:05:53.546Z,44.90
2022-07-26T20:08:20.593Z,44.60
2022-07-26T20:10:47.390Z,44.60
2022-07-26T20:13:14.142Z,44.60
2022-07-26T20:15:40.916Z,44.50
2022-07-26T20:18:07.765Z,44.70
2022-07-26T20:20:34.560Z,44.90
2022-07-26T20:23:03.448Z,45.30
2022-07-26T20:25:32.065Z,46.00
2022-07-26T20:27:59.295Z,45.40
2022-07-26T20:30:26.277Z,45.60
2022-07-26T20:32:53.019Z,45.70
2022-07-26T20:35:19.973Z,45.30
2022-07-26T20:37:46.845Z,45.50
2022-07-26T20:40:16.417Z,45.70
2022-07-26T20:42:45.026Z,45.90
2022-07-26T20:45:13.658Z,46.10
2022-07-26T20:47:40.811Z,46.10
2022-07-26T20:50:11.425Z,46.10
2022-07-26T20:52:39.125Z,45.40
2022-07-26T20:55:06.545Z,44.90
2022-07-26T20:57:33.349Z,45.00
2022-07-26T21:00:00.383Z,45.30
2022-07-26T21:02:27.559Z,45.10
2022-07-26T21:04:54.585Z,45.20
2022-07-26T21:07:21.405Z,45.20
2022-07-26T21:09:48.127Z,45.20
2022-07-26T21:12:15.073Z,45.30
2022-07-26T21:14:41.877Z,45.60
2022-07-26T21:17:11.956Z,45.80
2022-07-26T21:19:39.322Z,46.40
2022-07-26T21:22:06.658Z,46.60
2022-07-26T21:24:34.968Z,46.40
2022-07-26T21:27:03.092Z,46.70
2022-07-26T21:29:30.075Z,46.60
2022-07-26T21:31:57.140Z,46.90
2022-07-26T21:34:26.672Z,47.10
2022-07-26T21:36:54.083Z,47.00
2022-07-26T21:39:20.892Z,47.20
2022-07-26T21:41:48.888Z,47.40
2022-07-26T21:44:15.755Z,47.40
2022-07-26T21:46:42.633Z,47.40
2022-07-26T21:49:10.079Z,47.50
2022-07-26T21:51:37.140Z,47.30
2022-07-26T21:54:03.913Z,47.10
2022-07-26T21:56:31.501Z,47.40
2022-07-26T21:58:59.985Z,47.20
2022-07-26T22:01:26.992Z,47.40
2022-07-26T22:03:53.825Z,47.50
2022-07-26T22:06:20.631Z,47.60
2022-07-26T22:08:47.401Z,48.00
2022-07-26T22:11:14.277Z,48.10
2022-07-26T22:13:44.958Z,48.00
2022-07-26T22:16:11.835Z,47.90
2022-07-26T22:18:38.781Z,48.00
2022-07-26T22:21:05.736Z,48.30
2022-07-26T22:23:32.762Z,48.20
2022-07-26T22:26:04.026Z,48.20
2022-07-26T22:28:32.559Z,48.80
2022-07-26T22:30:59.657Z,49.00
2022-07-26T22:33:26.778Z,48.80
2022-07-26T22:35:53.620Z,48.80
2022-07-26T22:38:20.879Z,49.00
2022-07-26T22:40:50.706Z,49.20
2022-07-26T22:43:17.709Z,49.30
2022-07-26T22:45:44.675Z,49.50
2022-07-26T22:48:11.782Z,49.60
2022-07-26T22:50:45.215Z,49.80
2022-07-26T22:53:15.154Z,50.00
2022-07-26T22:55:42.217Z,49.80
2022-07-26T22:58:10.882Z,49.90
2022-07-26T23:00:40.462Z,50.10
2022-07-26T23:03:16.889Z,50.20
2022-07-26T23:05:47.659Z,50.20
2022-07-26T23:11:02.687Z,50.60
2022-07-26T23:13:29.574Z,50.70
2022-07-26T23:16:00.293Z,50.50
2022-07-26T23:18:29.270Z,50.50
2022-07-26T23:20:56.199Z,50.60
2022-07-26T23:23:28.522Z,50.80
2022-07-26T23:26:05.770Z,50.80
2022-07-26T23:28:38.457Z,51.00
2022-07-26T23:31:13.607Z,51.10
2022-07-26T23:33:51.384Z,51.20
2022-07-26T23:36:37.514Z,51.20
2022-07-26T23:39:15.339Z,51.40
2022-07-26T23:41:54.955Z,51.40
2022-07-26T23:44:24.749Z,51.30
2022-07-26T23:46:51.781Z,51.40
2022-07-26T23:49:25.089Z,51.50
2022-07-26T23:51:52.287Z,51.50
2022-07-26T23:54:21.080Z,51.60
2022-07-26T23:56:50.870Z,51.30
2022-07-26T23:59:17.964Z,51.40
